Time;durP1;ratioP1;P1;durP2;ratioP2;P2;SDS_P1;SDS_P2;PMS_P1;PMS_P2;Temp;Humidity;BMP_temperature;BMP_pressure;BME280_temperature;BME280_humidity;BME280_pressure;Samples;Min_cycle;Max_cycle;Signal;HPM_P1;HPM_P2
2022/02/06 00:01:11;;;;;;;6.70;2.08;;;;;;;5.40;69.62;100413.38;10406306;28;20574;-74
2022/02/06 00:06:12;;;;;;;6.45;2.08;;;;;;;5.39;69.83;100416.13;10432107;28;21599;-74
2022/02/06 00:11:14;;;;;;;5.10;2.20;;;;;;;5.43;70.11;100407.09;10445518;28;20149;-73
2022/02/06 00:16:15;;;;;;;4.63;1.75;;;;;;;5.43;69.60;100404.47;10408778;28;20508;-73
2022/02/06 00:21:19;;;;;;;5.43;1.80;;;;;;;5.44;69.54;100396.44;10397272;28;20114;-74
2022/02/06 00:26:42;;;;;;;6.47;2.10;;;;;;;5.43;69.76;100378.91;10402911;28;20045;-73
2022/02/06 00:31:55;;;;;;;4.65;1.88;;;;;;;5.37;69.91;100384.53;10420048;28;20049;-73
2022/02/06 00:42:16;;;;;;;5.43;2.75;;;;;;;5.37;70.13;100375.78;10402467;28;20053;-73
2022/02/06 00:47:18;;;;;;;4.60;2.70;;;;;;;5.45;69.96;100374.41;10397151;28;20049;-73
2022/02/06 00:52:36;;;;;;;6.63;2.20;;;;;;;5.48;69.83;100352.25;10398777;28;20053;-73
2022/02/06 00:57:37;;;;;;;4.85;1.60;;;;;;;5.45;69.69;100344.47;10420572;28;20047;-73
2022/02/06 01:02:39;;;;;;;6.15;2.15;;;;;;;5.49;69.63;100332.81;10402195;28;20048;-71
2022/02/06 01:07:41;;;;;;;5.05;1.60;;;;;;;5.46;69.37;100319.78;10418664;28;20053;-72
2022/02/06 01:12:48;;;;;;;2.63;1.38;;;;;;;5.47;69.70;100303.88;10439197;28;20078;-71
2022/02/06 01:22:59;;;;;;;6.53;1.63;;;;;;;5.54;69.76;100314.94;10392559;28;20132;-71
2022/02/06 01:28:12;;;;;;;3.65;1.85;;;;;;;5.54;69.80;100298.22;10395035;28;20132;-72
2022/02/06 01:33:30;;;;;;;5.57;5.13;;;;;;;5.60;70.53;100290.81;10403436;28;20063;-72
2022/02/06 01:43:45;;;;;;;3.73;1.63;;;;;;;5.51;72.29;100264.94;10392293;28;20052;-72
2022/02/06 02:05:36;;;;;;;6.55;2.25;;;;;;;5.50;75.07;100234.19;10402112;28;20053;-72
2022/02/06 02:52:22;;;;;;;6.87;2.30;;;;;;;5.64;73.73;100162.06;10400076;28;20682;-73
2022/02/06 02:57:31;;;;;;;4.72;2.42;;;;;;;5.63;73.90;100148.00;10414605;28;20082;-73
2022/02/06 03:02:32;;;;;;;7.05;2.50;;;;;;;5.64;73.69;100131.22;10422738;28;20625;-72
2022/02/06 03:07:34;;;;;;;5.18;2.50;;;;;;;5.58;73.62;100110.47;10425053;28;20523;-72
2022/02/06 03:12:36;;;;;;;5.88;2.60;;;;;;;5.70;73.71;100145.00;10407980;28;20462;-73
2022/02/06 03:17:45;;;;;;;6.78;2.50;;;;;;;5.76;73.51;100137.53;10416493;28;20148;-73
2022/02/06 03:22:52;;;;;;;7.18;2.15;;;;;;;5.86;73.17;100118.47;10465845;28;20040;-74
2022/02/06 03:27:54;;;;;;;4.25;2.03;;;;;;;5.87;72.70;100094.59;10477600;28;20055;-75
2022/02/06 03:32:56;;;;;;;4.95;2.50;;;;;;;5.85;72.92;100091.19;10431333;28;20141;-74
2022/02/06 03:37:58;;;;;;;4.40;2.03;;;;;;;5.82;72.98;100075.53;10408243;28;20048;-72
2022/02/06 03:48:11;;;;;;;5.40;2.00;;;;;;;5.82;73.30;100071.13;10400683;28;20060;-72
2022/02/06 03:53:14;;;;;;;5.60;1.88;;;;;;;5.80;73.25;100069.50;10398506;28;20056;-72
2022/02/06 03:58:16;;;;;;;4.57;2.30;;;;;;;5.87;72.88;100065.53;10405296;28;20045;-72
2022/02/06 04:03:18;;;;;;;5.32;2.50;;;;;;;5.86;72.61;100070.94;10401034;28;20137;-73
2022/02/06 04:08:20;;;;;;;6.78;2.88;;;;;;;5.83;72.91;100050.81;10405159;28;22948;-73
2022/02/06 04:13:24;;;;;;;6.93;2.00;;;;;;;5.75;73.32;100047.81;10400128;28;20044;-73
2022/02/06 04:23:30;;;;;;;4.05;2.30;;;;;;;5.94;72.81;100021.06;10442528;28;20057;-74
2022/02/06 04:28:34;;;;;;;3.95;1.83;;;;;;;5.97;72.64;100020.91;10441508;28;20847;-74
2022/02/06 04:33:35;;;;;;;3.80;1.60;;;;;;;5.91;72.92;100008.91;10403734;28;20139;-73
2022/02/06 04:38:49;;;;;;;6.60;2.38;;;;;;;5.95;72.60;100002.47;10427030;28;20051;-73
2022/02/06 04:54:35;;;;;;;5.22;2.55;;;;;;;5.87;72.56;99973.09;10403405;28;20060;-73
2022/02/06 05:26:22;;;;;;;4.30;1.73;;;;;;;5.95;72.11;99931.13;10441609;28;20072;-74
2022/02/06 05:36:30;;;;;;;5.82;1.88;;;;;;;5.99;71.66;99923.88;10438298;28;20052;-73
2022/02/06 05:41:31;;;;;;;6.05;1.45;;;;;;;6.06;71.99;99924.34;10434383;28;20139;-72
2022/02/06 05:46:33;;;;;;;7.32;2.08;;;;;;;6.07;71.85;99913.66;10405927;28;20057;-73
2022/02/06 05:51:34;;;;;;;9.55;3.08;;;;;;;6.07;71.77;99897.81;10407754;28;20049;-73
2022/02/06 05:56:36;;;;;;;5.95;2.05;;;;;;;6.14;71.79;99911.44;10391317;28;20396;-73
2022/02/06 06:01:37;;;;;;;6.20;1.75;;;;;;;6.13;71.81;99891.25;10399726;28;20140;-72
2022/02/06 06:06:38;;;;;;;5.72;2.80;;;;;;;6.18;71.35;99891.78;10396160;28;20057;-74
2022/02/06 06:11:40;;;;;;;6.93;3.13;;;;;;;6.17;71.83;99892.72;10396387;28;20053;-72
2022/02/06 06:16:41;;;;;;;6.60;2.58;;;;;;;6.09;72.05;99873.91;10420508;28;20077;-74
2022/02/06 06:21:46;;;;;;;4.85;2.60;;;;;;;6.11;72.40;99879.94;10413808;28;20136;-75
2022/02/06 06:26:47;;;;;;;4.93;2.40;;;;;;;6.05;72.90;99890.91;10407951;28;20080;-74
2022/02/06 06:31:49;;;;;;;3.60;2.60;;;;;;;6.04;73.34;99895.38;10403490;28;20063;-74
2022/02/06 06:36:52;;;;;;;5.10;2.92;;;;;;;6.01;73.51;99870.00;10398823;28;20083;-73
2022/02/06 06:41:53;;;;;;;4.28;2.50;;;;;;;6.06;73.66;99866.19;10400548;28;20056;-72
2022/02/06 06:46:55;;;;;;;4.47;2.67;;;;;;;6.06;73.30;99840.59;10399195;28;20059;-73
2022/02/06 06:51:57;;;;;;;6.68;2.50;;;;;;;6.08;73.16;99822.00;10405077;28;20076;-74
2022/02/06 06:57:04;;;;;;;5.68;2.17;;;;;;;6.09;73.45;99807.84;10428564;28;20142;-73
2022/02/06 07:07:27;;;;;;;4.55;2.33;;;;;;;6.10;73.15;99809.56;10415071;28;20131;-73
2022/02/06 07:12:29;;;;;;;4.53;2.30;;;;;;;6.08;72.84;99808.78;10423432;28;20056;-75
2022/02/06 07:17:30;;;;;;;5.63;2.10;;;;;;;6.17;72.49;99800.22;10456669;28;20053;-72
2022/02/06 07:22:36;;;;;;;4.43;1.80;;;;;;;6.18;72.89;99796.63;10461644;28;20109;-74
2022/02/06 07:27:41;;;;;;;7.90;2.08;;;;;;;6.19;72.63;99799.16;10475902;28;20071;-74
2022/02/06 07:32:43;;;;;;;3.85;1.50;;;;;;;6.17;72.89;99771.16;10421438;28;20056;-70
2022/02/06 07:37:58;;;;;;;4.68;1.63;;;;;;;6.19;73.20;99766.63;10417821;28;20044;-72
2022/02/06 07:42:59;;;;;;;3.75;1.15;;;;;;;6.13;73.01;99762.59;10435969;28;20148;-72
2022/02/06 07:48:02;;;;;;;6.80;6.25;;;;;;;6.28;72.95;99767.78;10443950;28;20056;-72
2022/02/06 07:53:04;;;;;;;4.40;4.00;;;;;;;6.25;72.73;99760.91;10457194;28;20037;-69
2022/02/06 07:58:05;;;;;;;6.15;3.67;;;;;;;6.29;72.31;99772.97;10430101;28;20049;-70
2022/02/06 08:03:06;;;;;;;6.90;1.38;;;;;;;6.28;72.28;99767.78;10412924;28;20202;-70
2022/02/06 08:08:13;;;;;;;4.00;1.75;;;;;;;6.26;72.33;99757.31;10399729;28;20063;-69
2022/02/06 08:13:25;;;;;;;2.28;1.40;;;;;;;6.32;72.55;99724.28;10392491;28;20156;-71
2022/02/06 08:18:27;;;;;;;2.58;1.13;;;;;;;6.39;73.04;99724.72;10386900;28;20055;-73
2022/02/06 08:23:29;;;;;;;3.42;1.27;;;;;;;6.65;75.81;99738.69;10387556;28;20074;-69
2022/02/06 08:28:31;;;;;;;3.83;1.55;;;;;;;6.53;75.39;99724.56;10398829;28;20543;-68
2022/02/06 08:33:32;;;;;;;4.65;1.50;;;;;;;6.32;75.92;99713.72;10433812;28;20101;-72
2022/02/06 08:38:34;;;;;;;5.18;1.40;;;;;;;6.29;77.03;99721.88;10399726;28;20435;-71
2022/02/06 08:43:35;;;;;;;3.67;1.25;;;;;;;6.26;76.93;99696.53;10390669;28;20507;-72
2022/02/06 08:48:38;;;;;;;2.13;1.02;;;;;;;6.23;77.20;99694.09;10402530;28;20096;-71
2022/02/06 08:53:41;;;;;;;4.70;1.60;;;;;;;6.20;78.05;99678.47;10417689;28;20145;-69
2022/02/06 08:58:43;;;;;;;1.23;1.02;;;;;;;6.14;78.14;99652.44;10432834;28;20056;-70
2022/02/06 09:03:44;;;;;;;4.55;1.55;;;;;;;6.14;79.74;99647.16;10436167;28;20726;-71
2022/02/06 09:08:49;;;;;;;5.22;1.60;;;;;;;6.21;78.61;99643.13;10414273;28;20054;-71
2022/02/06 09:13:52;;;;;;;3.20;1.55;;;;;;;6.17;79.06;99625.78;10396708;28;21398;-72
2022/02/06 09:18:54;;;;;;;5.80;1.52;;;;;;;6.22;78.74;99618.41;10419851;28;21756;-69
2022/02/06 09:23:55;;;;;;;2.55;1.25;;;;;;;6.24;79.67;99616.47;10402608;28;20045;-73
2022/02/06 09:28:57;;;;;;;4.45;0.85;;;;;;;6.24;79.51;99600.63;10419658;28;20064;-71
2022/02/06 09:44:28;;;;;;;1.90;0.98;;;;;;;6.17;80.37;99557.94;10199793;28;20150;-61
2022/02/06 09:49:32;;;;;;;3.35;1.20;;;;;;;6.21;79.54;99547.97;10203818;28;20077;-61
2022/02/06 09:54:33;;;;;;;2.53;1.00;;;;;;;6.20;80.39;99546.31;10233419;28;20053;-59
2022/02/06 09:59:38;;;;;;;4.65;1.35;;;;;;;6.11;81.23;99510.84;10233673;28;20065;-64
2022/02/06 10:04:40;;;;;;;3.33;1.48;;;;;;;6.15;82.03;99509.63;10258757;28;20054;-61
2022/02/06 10:09:56;;;;;;;4.35;1.23;;;;;;;6.22;81.89;99512.69;10241618;28;20083;-60
2022/02/06 10:14:57;;;;;;;2.35;1.38;;;;;;;6.17;82.70;99483.97;10245980;28;20050;-60
2022/02/06 10:20:01;;;;;;;2.47;0.82;;;;;;;6.31;82.73;99501.41;10233909;28;20061;-61
2022/02/06 10:25:06;;;;;;;4.00;1.38;;;;;;;6.26;82.29;99469.22;10244618;28;20051;-63
2022/02/06 10:30:19;;;;;;;2.22;0.98;;;;;;;6.31;82.07;99477.63;10231848;28;20055;-61
2022/02/06 10:35:20;;;;;;;4.10;1.52;;;;;;;6.27;82.88;99470.88;10251641;28;20065;-60
2022/02/06 10:40:28;;;;;;;2.67;0.68;;;;;;;6.16;83.51;99445.25;10235771;28;20075;-60
2022/02/06 10:45:30;;;;;;;2.63;1.02;;;;;;;6.23;83.50;99424.53;10229821;28;20055;-59
2022/02/06 10:50:33;;;;;;;2.58;0.95;;;;;;;6.25;84.34;99419.13;10248282;28;20069;-62
2022/02/06 10:55:35;;;;;;;2.10;0.50;;;;;;;6.14;83.71;99391.69;10241248;28;20093;-62
2022/02/06 11:00:36;;;;;;;1.67;0.95;;;;;;;6.25;83.22;99406.72;10309014;28;20132;-58
2022/02/06 11:06:16;;;;;;;4.00;1.20;;;;;;;6.33;83.53;99372.63;10309887;28;20077;-59
2022/02/06 11:11:10;;;;;;;4.30;1.17;;;;;;;6.41;82.39;99360.63;10304448;28;20062;-62
2022/02/06 11:16:17;;;;;;;2.38;0.85;;;;;;;6.47;82.30;99328.41;10306475;28;20071;-59
2022/02/06 11:21:19;;;;;;;1.92;0.82;;;;;;;6.47;81.65;99313.41;10306893;28;20149;-59
2022/02/06 11:26:23;;;;;;;4.35;2.92;;;;;;;6.37;82.51;99297.41;10288975;28;20042;-60
2022/02/06 11:31:26;;;;;;;10.83;7.30;;;;;;;6.45;82.68;99312.66;10304742;28;20128;-62
2022/02/06 11:47:23;;;;;;;2.40;0.75;;;;;;;6.17;85.64;99261.97;10315508;28;20050;-60
2022/02/06 11:52:54;;;;;;;2.55;0.60;;;;;;;6.17;88.27;99261.97;10314377;28;20058;-62
2022/02/06 12:03:13;;;;;;;0.90;0.40;;;;;;;6.08;87.20;99225.72;10575940;23;20042;-62
2022/02/06 12:08:15;;;;;;;2.30;0.50;;;;;;;5.86;88.19;99189.53;10302156;28;20259;-61
2022/02/06 12:13:33;;;;;;;1.38;0.40;;;;;;;6.06;88.09;99216.22;10300242;28;20581;-60
2022/02/06 12:18:37;;;;;;;1.20;0.30;;;;;;;5.91;88.99;99181.25;10315219;28;20042;-60
2022/02/06 12:23:55;;;;;;;1.83;0.20;;;;;;;6.01;89.26;99167.22;10302370;28;20060;-61
2022/02/06 12:29:07;;;;;;;1.73;0.47;;;;;;;6.09;88.30;99169.25;10298661;28;20046;-61
2022/02/06 12:39:10;;;;;;;1.85;0.55;;;;;;;5.98;87.95;99129.63;10299278;28;20507;-62
2022/02/06 12:44:15;;;;;;;1.10;0.30;;;;;;;5.95;87.75;99130.69;10302564;28;20058;-58
2022/02/06 12:49:20;;;;;;;2.00;0.30;;;;;;;5.90;87.93;99095.03;10301880;28;20054;-59
2022/02/06 12:54:22;;;;;;;;;;;;;;;5.90;89.50;99087.97;10307299;28;20046;-60
2022/02/06 12:59:26;;;;;;;2.40;1.33;;;;;;;5.87;88.88;99059.16;10308931;28;19991;-59
2022/02/06 13:04:31;;;;;;;0.85;0.52;;;;;;;5.84;89.24;99059.41;10307113;28;20054;-61
2022/02/06 13:09:43;;;;;;;4.13;2.45;;;;;;;5.83;88.81;99020.75;10304256;28;20116;-60
2022/02/06 13:20:23;;;;;;;2.40;0.55;;;;;;;5.73;88.24;99001.31;10302368;28;20046;-60
2022/02/06 13:32:15;;;;;;;1.05;0.40;;;;;;;5.78;88.51;98970.06;11580380;22;20038;-61
2022/02/06 13:37:30;;;;;;;1.73;0.38;;;;;;;5.74;88.12;98960.75;10335084;28;20061;-61
2022/02/06 13:42:33;;;;;;;1.25;0.30;;;;;;;5.71;88.46;98953.09;10312868;28;20127;-60
2022/02/06 13:47:35;;;;;;;0.65;0.30;;;;;;;5.67;89.19;98939.28;10309281;28;20050;-61
2022/02/06 13:52:43;;;;;;;0.80;0.20;;;;;;;5.77;89.20;98934.91;10306461;28;20104;-59
2022/02/06 13:57:46;;;;;;;1.77;0.20;;;;;;;5.70;87.86;98909.16;10305840;28;20050;-60
2022/02/06 14:02:54;;;;;;;1.33;0.57;;;;;;;5.85;87.89;98934.28;10305719;28;20069;-60
2022/02/06 14:08:04;;;;;;;0.43;0.30;;;;;;;5.87;86.89;98931.53;10298950;28;20207;-60
2022/02/06 14:13:05;;;;;;;2.17;0.40;;;;;;;5.84;87.30;98901.78;10306044;28;20050;-59
2022/02/06 14:18:07;;;;;;;0.68;0.32;;;;;;;5.86;86.55;98916.66;10302632;28;20071;-60
2022/02/06 14:23:15;;;;;;;0.70;0.30;;;;;;;5.76;86.12;98884.88;10306594;28;20730;-60
2022/02/06 14:28:20;;;;;;;0.50;0.50;;;;;;;5.84;86.89;98878.00;10309685;28;20159;-62
2022/02/06 14:33:24;;;;;;;0.30;0.10;;;;;;;5.79;85.73;98888.09;10311532;28;20228;-61
2022/02/06 14:38:38;;;;;;;0.40;0.20;;;;;;;5.79;85.83;98866.13;10302751;28;20064;-60
2022/02/06 14:43:42;;;;;;;0.73;0.30;;;;;;;5.75;86.11;98859.44;10309313;28;20061;-61
2022/02/06 14:48:44;;;;;;;1.42;0.35;;;;;;;5.73;86.86;98830.50;10300542;28;20799;-60
2022/02/06 14:54:02;;;;;;;1.05;0.20;;;;;;;5.77;86.58;98828.47;10299515;28;20046;-61
2022/02/06 14:59:03;;;;;;;1.20;0.43;;;;;;;5.79;86.75;98835.28;10301487;28;20132;-59
2022/02/06 15:04:04;;;;;;;0.80;0.20;;;;;;;5.74;85.83;98821.63;10303816;28;20054;-62
2022/02/06 15:09:06;;;;;;;0.52;0.13;;;;;;;5.75;87.12;98833.03;10306479;28;20115;-60
2022/02/06 15:14:07;;;;;;;1.35;0.40;;;;;;;5.71;89.19;98839.53;10311121;28;20054;-60
2022/02/06 15:19:13;;;;;;;0.55;0.30;;;;;;;5.75;89.75;98870.00;10312863;28;20057;-60
2022/02/06 15:24:16;;;;;;;0.73;0.20;;;;;;;5.65;91.59;98870.75;10317251;28;20221;-61
2022/02/06 15:29:19;;;;;;;0.50;0.20;;;;;;;5.65;92.46;98893.69;10321517;28;20065;-60
2022/02/06 15:34:20;;;;;;;0.43;0.17;;;;;;;5.71;93.75;98911.66;10319169;28;20042;-61
2022/02/06 15:39:24;;;;;;;1.70;0.30;;;;;;;5.56;95.27;98934.88;10315205;28;20064;-61
2022/02/06 15:44:25;;;;;;;0.90;0.30;;;;;;;5.41;97.02;98920.28;10312017;28;20261;-61
2022/02/06 15:49:28;;;;;;;2.22;0.35;;;;;;;5.57;97.39;98936.56;10342845;28;20065;-60
2022/02/06 15:54:30;;;;;;;0.30;0.20;;;;;;;5.72;97.11;98925.69;10345906;28;20065;-60
2022/02/06 15:59:31;;;;;;;0.73;0.43;;;;;;;5.80;96.91;98926.75;10343273;28;22004;-59
2022/02/06 16:04:32;;;;;;;1.25;0.50;;;;;;;5.94;96.30;98919.50;10344941;28;20137;-59
2022/02/06 16:09:35;;;;;;;1.98;0.40;;;;;;;5.86;96.84;98935.97;10343996;28;20124;-62
2022/02/06 16:14:39;;;;;;;4.20;0.70;;;;;;;6.13;97.05;98945.28;10342722;28;20049;-60
2022/02/06 16:19:41;;;;;;;1.03;0.73;;;;;;;6.12;98.00;98946.22;10342230;28;21172;-61
2022/02/06 16:24:42;;;;;;;2.47;0.73;;;;;;;6.29;nan;98935.09;10339118;28;20292;-60
2022/02/06 16:29:44;;;;;;;0.55;0.40;;;;;;;6.26;92.35;98945.94;10330048;28;20060;-59
2022/02/06 16:34:47;;;;;;;0.50;0.20;;;;;;;6.30;92.18;98938.56;10335060;28;20053;-64
2022/02/06 16:39:50;;;;;;;0.55;0.28;;;;;;;6.32;88.99;98924.28;10345352;28;20052;-60
2022/02/06 16:44:52;;;;;;;0.90;0.38;;;;;;;6.31;89.87;98919.94;10339844;28;20057;-61
2022/02/06 16:49:54;;;;;;;0.80;0.35;;;;;;;6.33;89.31;98944.44;10333671;28;20045;-59
2022/02/06 16:54:55;;;;;;;1.08;0.52;;;;;;;6.28;89.43;98962.50;10309635;28;20762;-61
2022/02/06 16:59:56;;;;;;;2.03;0.52;;;;;;;6.03;87.85;98931.13;10305093;28;20234;-62
2022/02/06 17:04:58;;;;;;;0.52;0.32;;;;;;;6.05;87.67;98916.84;10328489;28;21139;-63
2022/02/06 17:10:01;;;;;;;0.55;0.25;;;;;;;6.06;88.28;98905.28;10337747;28;20053;-61
2022/02/06 17:15:03;;;;;;;0.63;0.30;;;;;;;6.14;87.88;98931.94;10295738;28;20250;-59
2022/02/06 17:20:05;;;;;;;0.65;0.22;;;;;;;6.14;87.25;98933.72;10304063;28;20160;-61
2022/02/06 17:25:07;;;;;;;0.88;0.75;;;;;;;6.15;87.94;98935.41;10310827;28;20324;-60
2022/02/06 17:30:09;;;;;;;1.02;0.30;;;;;;;6.14;86.81;98944.28;10301714;28;20054;-61
2022/02/06 17:35:11;;;;;;;1.08;0.45;;;;;;;6.16;86.88;98934.44;10298899;28;20093;-63
2022/02/06 17:40:13;;;;;;;0.50;0.17;;;;;;;6.26;86.56;98927.44;10311914;28;20302;-63
2022/02/06 17:45:15;;;;;;;1.63;0.32;;;;;;;6.22;86.09;98910.16;10297931;28;20061;-62
2022/02/06 17:50:17;;;;;;;0.55;0.25;;;;;;;6.14;86.11;98897.59;10292245;28;20499;-62
2022/02/06 17:55:19;;;;;;;0.77;0.32;;;;;;;6.08;85.08;98889.31;10300117;28;20490;-60
2022/02/06 18:00:21;;;;;;;1.02;0.50;;;;;;;6.17;86.99;98867.41;10296386;28;20456;-61
2022/02/06 18:05:22;;;;;;;0.95;0.45;;;;;;;6.24;84.26;98849.25;10304659;28;20049;-59
2022/02/06 18:10:24;;;;;;;1.15;0.50;;;;;;;6.10;85.08;98842.50;10306255;28;20196;-60
2022/02/06 18:15:25;;;;;;;1.52;0.45;;;;;;;5.98;83.81;98818.78;10304707;28;20137;-59
2022/02/06 18:20:28;;;;;;;0.75;0.40;;;;;;;6.09;84.38;98815.22;10296585;28;21235;-59
2022/02/06 18:25:36;;;;;;;1.88;0.50;;;;;;;6.24;82.94;98810.44;10302542;28;20627;-61
2022/02/06 18:30:38;;;;;;;1.05;0.60;;;;;;;6.26;82.80;98794.44;10299926;28;20435;-63
2022/02/06 18:35:40;;;;;;;0.90;0.60;;;;;;;6.34;82.00;98792.81;10303134;28;20545;-61
2022/02/06 18:40:45;;;;;;;;;;;;;;;6.36;83.11;98790.91;10300475;28;20049;-62
2022/02/06 18:45:46;;;;;;;4.68;1.98;;;;;;;6.43;83.23;98814.16;10303828;28;19925;-60
2022/02/06 18:50:48;;;;;;;2.47;1.83;;;;;;;6.42;83.08;98780.75;10293237;28;23521;-61
2022/02/06 18:55:53;;;;;;;3.03;1.08;;;;;;;6.45;83.38;98783.97;10307140;28;20054;-61
2022/02/06 19:00:55;;;;;;;1.58;0.93;;;;;;;6.49;83.05;98782.72;10298669;28;20046;-61
2022/02/06 19:05:56;;;;;;;1.38;1.10;;;;;;;6.52;83.82;98773.69;10300429;28;20049;-60
2022/02/06 19:11:00;;;;;;;2.05;0.82;;;;;;;6.51;84.51;98741.13;10303127;28;20076;-60
2022/02/06 19:16:01;;;;;;;2.08;0.80;;;;;;;6.44;84.70;98749.72;10303388;28;20058;-61
2022/02/06 19:21:03;;;;;;;1.88;0.70;;;;;;;6.63;86.82;98770.94;10303423;28;20052;-60
2022/02/06 19:26:05;;;;;;;2.58;0.90;;;;;;;6.51;87.05;98778.13;10301953;28;20121;-61
2022/02/06 19:31:12;;;;;;;2.10;1.15;;;;;;;6.75;86.14;98821.91;10299454;28;20054;-60
2022/02/06 19:36:16;;;;;;;1.58;0.82;;;;;;;6.76;86.75;98814.84;10303917;28;20415;-61
2022/02/06 19:41:19;;;;;;;1.27;0.50;;;;;;;6.29;86.98;98810.03;10312838;28;20058;-62
2022/02/06 19:46:24;;;;;;;1.63;0.20;;;;;;;5.81;87.04;98763.84;10305999;28;20518;-62
2022/02/06 19:51:26;;;;;;;1.90;0.50;;;;;;;5.96;88.05;98752.00;10304407;28;20061;-62
2022/02/06 19:56:29;;;;;;;2.80;1.90;;;;;;;5.90;85.76;98751.69;10304382;28;20184;-62
2022/02/06 20:01:31;;;;;;;2.17;1.58;;;;;;;5.93;85.23;98760.19;10312648;28;20527;-62
2022/02/06 20:06:32;;;;;;;1.02;0.55;;;;;;;5.76;85.72;98771.34;10329099;28;20053;-64
2022/02/06 20:11:34;;;;;;;0.88;0.30;;;;;;;5.65;85.25;98754.59;10348125;28;20731;-63
2022/02/06 20:16:37;;;;;;;1.00;0.30;;;;;;;5.70;86.11;98764.75;10345464;28;20045;-61
2022/02/06 20:21:40;;;;;;;2.00;0.40;;;;;;;6.31;91.55;98771.94;10345857;28;20092;-61
2022/02/06 20:26:42;;;;;;;1.95;0.20;;;;;;;6.25;85.35;98743.41;10345402;28;20141;-60
2022/02/06 20:31:44;;;;;;;0.95;0.38;;;;;;;6.20;84.52;98742.97;10344994;28;21038;-61
2022/02/06 20:36:45;;;;;;;0.70;0.35;;;;;;;6.04;83.61;98763.75;10339491;28;20056;-62
2022/02/06 20:41:46;;;;;;;0.73;0.30;;;;;;;5.88;84.59;98782.69;10339204;28;20064;-61
2022/02/06 20:46:48;;;;;;;1.10;0.40;;;;;;;6.05;84.92;98782.13;10343519;28;20049;-62
2022/02/06 20:51:50;;;;;;;1.08;0.82;;;;;;;5.86;84.08;98814.50;10334182;28;20413;-60
2022/02/06 20:56:52;;;;;;;1.90;0.60;;;;;;;5.60;85.08;98846.53;10345379;28;20671;-60
2022/02/06 21:01:54;;;;;;;0.35;0.10;;;;;;;5.31;84.64;98870.03;10343789;28;20736;-61
2022/02/06 21:06:55;;;;;;;0.38;0.17;;;;;;;5.27;84.30;98866.81;10338702;28;20049;-61
2022/02/06 21:11:57;;;;;;;1.13;0.20;;;;;;;5.12;84.08;98857.50;10340417;28;20054;-61
2022/02/06 21:16:58;;;;;;;0.38;0.10;;;;;;;4.86;85.26;98873.56;10341910;28;20057;-62
2022/02/06 21:21:59;;;;;;;0.70;0.20;;;;;;;5.01;86.18;98870.69;10340644;28;20054;-61
2022/02/06 21:27:01;;;;;;;1.05;0.32;;;;;;;5.25;85.67;98868.72;10339808;28;20049;-63
2022/02/06 21:32:02;;;;;;;0.43;0.10;;;;;;;5.41;86.13;98857.75;10343789;28;20181;-60
2022/02/06 21:37:04;;;;;;;0.57;0.20;;;;;;;5.17;84.11;98807.81;10354778;28;20123;-61
2022/02/06 21:42:06;;;;;;;1.13;0.17;;;;;;;5.44;84.66;98809.19;10351864;28;20111;-61
2022/02/06 21:47:07;;;;;;;0.70;0.28;;;;;;;5.39;85.23;98822.75;10339707;28;20061;-62
2022/02/06 21:52:13;;;;;;;2.00;0.20;;;;;;;5.48;84.38;98852.84;10341052;28;20049;-61
2022/02/06 21:57:14;;;;;;;1.05;0.20;;;;;;;5.48;82.17;98876.59;10343995;28;20073;-62
2022/02/06 22:02:15;;;;;;;0.30;0.10;;;;;;;5.31;82.00;98831.31;10339427;28;20123;-60
2022/02/06 22:07:29;;;;;;;0.88;0.20;;;;;;;5.35;81.37;98841.59;10337904;28;20506;-62
2022/02/06 22:23:41;;;;;;;0.35;0.10;;;;;;;5.24;82.38;98859.13;10337402;28;20072;-66
2022/02/06 22:28:59;;;;;;;0.40;0.15;;;;;;;5.36;81.91;98874.91;10338067;28;20056;-61
2022/02/06 22:34:00;;;;;;;0.60;0.10;;;;;;;5.29;81.62;98875.41;10349139;28;20045;-63
2022/02/06 22:39:03;;;;;;;0.15;0.05;;;;;;;5.32;82.22;98891.00;10352855;28;20045;-61
2022/02/06 22:44:12;;;;;;;0.38;0.10;;;;;;;5.26;82.37;98882.75;10345217;28;20054;-62
2022/02/06 22:49:14;;;;;;;1.40;0.10;;;;;;;5.31;82.42;98928.94;10313860;28;20045;-63
2022/02/06 22:54:16;;;;;;;1.08;0.10;;;;;;;5.24;81.54;98942.69;10312963;28;20046;-63
2022/02/06 22:59:18;;;;;;;0.52;0.20;;;;;;;5.27;81.48;98951.22;10312449;28;20449;-61
2022/02/06 23:04:19;;;;;;;0.45;0.10;;;;;;;5.13;81.32;98935.66;10309888;28;20273;-62
2022/02/06 23:09:24;;;;;;;1.42;0.20;;;;;;;5.07;82.07;98901.84;10311624;28;20051;-62
2022/02/06 23:14:26;;;;;;;0.68;0.22;;;;;;;5.15;82.09;98939.03;10310009;28;20058;-61
2022/02/06 23:19:27;;;;;;;0.10;0.10;;;;;;;5.30;82.06;98926.41;10310865;28;20060;-62
2022/02/06 23:24:30;;;;;;;1.00;0.38;;;;;;;5.35;81.40;98928.69;10318002;28;20042;-62
2022/02/06 23:29:32;;;;;;;0.40;0.20;;;;;;;5.07;80.89;98931.69;10310133;28;20057;-63
2022/02/06 23:34:33;;;;;;;0.82;0.20;;;;;;;4.83;82.71;98921.25;10310046;28;23372;-62
2022/02/06 23:39:34;;;;;;;2.35;0.20;;;;;;;4.74;82.28;98914.06;10318447;28;20081;-63
2022/02/06 23:44:36;;;;;;;2.38;0.55;;;;;;;4.60;79.44;98947.59;10321307;28;20050;-63
2022/02/06 23:49:38;;;;;;;0.80;0.45;;;;;;;4.59;78.35;98947.72;10320115;28;20049;-62
